Terminal Aerodrome Forecast
Issued by NWS Paducah, KY

Home | Current Version | Previous Version | Graphics & Text | Print | Product List | Glossary On
Versions: 1 2 3 4 5 6 7 8 9 10 11 12 13 14 15 16 17 18 19 20 21 22 23 24 25 26 27 28 29
000
FTUS43 KPAH 290041 AAC
TAFEVV
TAF AMD
KEVV 290041Z 2901/2924 22004KT P6SM SCT030
      TEMPO 2901/2902 VRB20G40KT 1SM +TSRA BR OVC015CB
     FM290400 VRB02KT 5SM BR SKC
     FM290700 00000KT 4SM BR SCT015
     FM291400 27004KT P6SM SCT025=

USA.gov is the U.S. government's official web portal to all federal, state and local government web resources and services.